Time;durP1;ratioP1;P1;durP2;ratioP2;P2;SDS_P1;SDS_P2;PMS_P1;PMS_P2;Temp;Humidity;BMP_temperature;BMP_pressure;BME280_temperature;BME280_humidity;BME280_pressure;Samples;Min_cycle;Max_cycle;Signal;HPM_P1;HPM_P2
2022/08/28 00:00:24;;;;;;;9.80;6.90;;;;;;;18.99;100.00;100676.16;4958085;28;20040;-84
2022/08/28 00:02:52;;;;;;;10.85;7.40;;;;;;;18.84;100.00;100674.34;4974888;28;20042;-85
2022/08/28 00:05:23;;;;;;;11.13;7.70;;;;;;;18.88;100.00;100675.88;4959421;28;20671;-85
2022/08/28 00:07:53;;;;;;;9.73;7.40;;;;;;;18.91;100.00;100674.84;4956890;28;20039;-85
2022/08/28 00:10:24;;;;;;;10.68;7.20;;;;;;;18.86;100.00;100677.78;4966863;28;20113;-84
2022/08/28 00:12:54;;;;;;;8.95;6.97;;;;;;;18.88;100.00;100673.19;4987255;28;20034;-85
2022/08/28 00:15:26;;;;;;;12.00;7.85;;;;;;;18.93;100.00;100668.47;4960597;28;20049;-84
2022/08/28 00:17:52;;;;;;;10.43;7.50;;;;;;;18.91;100.00;100674.84;4975035;28;20042;-84
2022/08/28 00:20:20;;;;;;;9.90;7.18;;;;;;;18.88;100.00;100672.34;4962660;28;20469;-83
2022/08/28 00:22:48;;;;;;;10.27;7.15;;;;;;;18.87;100.00;100660.78;4981130;28;20133;-84
2022/08/28 00:25:19;;;;;;;10.80;7.72;;;;;;;18.95;100.00;100661.22;4991789;28;20042;-84
2022/08/28 00:27:51;;;;;;;9.48;6.97;;;;;;;18.85;100.00;100670.72;4974544;28;20089;-83
2022/08/28 00:30:24;;;;;;;11.07;7.85;;;;;;;18.87;100.00;100662.59;4977828;28;20439;-83
2022/08/28 00:32:53;;;;;;;10.18;7.68;;;;;;;18.79;100.00;100660.31;4975043;28;20085;-84
2022/08/28 00:35:20;;;;;;;10.38;7.95;;;;;;;18.90;100.00;100667.75;4993746;28;20042;-84
2022/08/28 00:37:47;;;;;;;11.80;8.20;;;;;;;18.88;100.00;100664.31;4960225;28;20408;-83
2022/08/28 00:40:17;;;;;;;11.77;8.35;;;;;;;18.87;100.00;100663.44;4986311;28;20047;-83
2022/08/28 00:42:55;;;;;;;10.23;7.35;;;;;;;18.76;100.00;100665.84;4975734;28;20515;-83
2022/08/28 00:45:23;;;;;;;12.32;7.40;;;;;;;18.70;100.00;100666.19;4961069;28;20044;-84
2022/08/28 00:47:50;;;;;;;11.55;7.53;;;;;;;18.71;100.00;100668.75;4960051;28;20054;-84
2022/08/28 00:50:19;;;;;;;10.18;7.38;;;;;;;18.63;100.00;100662.94;4973709;28;20518;-84
2022/08/28 00:52:49;;;;;;;8.85;7.30;;;;;;;18.70;100.00;100659.00;4973590;28;20536;-83
2022/08/28 00:55:19;;;;;;;13.57;8.23;;;;;;;18.76;100.00;100660.50;4978888;28;20042;-84
2022/08/28 00:57:49;;;;;;;10.25;7.65;;;;;;;18.66;100.00;100659.25;4974707;28;20129;-83
2022/08/28 01:00:39;;;;;;;10.95;7.63;;;;;;;18.59;100.00;100668.53;4964294;28;20039;-83
2022/08/28 01:03:06;;;;;;;9.48;7.30;;;;;;;18.52;100.00;100662.66;4973597;28;20058;-83
2022/08/28 01:05:34;;;;;;;8.57;6.95;;;;;;;18.61;100.00;100659.47;4971808;28;20057;-83
2022/08/28 01:08:03;;;;;;;8.60;7.38;;;;;;;18.68;100.00;100660.06;4969831;28;20403;-84
2022/08/28 01:10:33;;;;;;;12.05;7.35;;;;;;;18.59;100.00;100653.34;4958262;28;20124;-83
2022/08/28 01:13:00;;;;;;;13.20;7.95;;;;;;;18.52;100.00;100652.81;4972902;28;20495;-83
2022/08/28 01:15:30;;;;;;;12.20;7.07;;;;;;;18.58;100.00;100659.63;4997691;28;20301;-82
2022/08/28 01:18:01;;;;;;;10.35;7.38;;;;;;;18.46;100.00;100652.25;4986835;28;20069;-83
2022/08/28 01:20:36;;;;;;;10.82;7.68;;;;;;;18.50;100.00;100654.72;4994687;28;20042;-83
2022/08/28 01:23:34;;;;;;;10.88;8.02;;;;;;;18.50;100.00;100654.72;4961022;28;20329;-84
2022/08/28 01:26:01;;;;;;;13.18;6.72;;;;;;;18.48;100.00;100661.94;4968728;28;20500;-84
2022/08/28 01:28:38;;;;;;;11.55;7.20;;;;;;;18.44;100.00;100663.06;4964064;28;20061;-84
2022/08/28 01:31:04;;;;;;;11.55;7.00;;;;;;;18.33;100.00;100662.75;4991822;28;20038;-83
2022/08/28 01:33:32;;;;;;;10.48;6.78;;;;;;;18.37;100.00;100664.31;4966485;28;20072;-82
2022/08/28 01:35:59;;;;;;;11.63;6.60;;;;;;;18.43;100.00;100664.00;4959089;28;20049;-83
2022/08/28 01:38:26;;;;;;;10.45;7.15;;;;;;;18.48;100.00;100659.25;4983186;28;20045;-83
2022/08/28 01:40:53;;;;;;;8.48;6.38;;;;;;;18.39;100.00;100651.72;4976656;28;20046;-82
2022/08/28 01:43:22;;;;;;;12.15;7.43;;;;;;;18.41;100.00;100665.00;4963831;28;20039;-83
2022/08/28 01:45:59;;;;;;;9.80;6.97;;;;;;;18.32;100.00;100665.50;5059785;23;21198;-83
2022/08/28 01:48:28;;;;;;;8.82;6.53;;;;;;;18.31;100.00;100664.63;4988757;28;20053;-84
2022/08/28 01:50:54;;;;;;;11.88;7.82;;;;;;;18.42;100.00;100662.28;4968540;28;20507;-84
2022/08/28 01:53:23;;;;;;;8.88;6.60;;;;;;;18.34;100.00;100664.50;4969699;28;20050;-86
2022/08/28 01:56:03;;;;;;;12.30;6.90;;;;;;;18.34;100.00;100666.31;4997712;28;20049;-84
2022/08/28 01:58:31;;;;;;;9.77;6.88;;;;;;;18.31;100.00;100664.63;4978512;28;20031;-84
2022/08/28 02:01:08;;;;;;;9.45;7.28;;;;;;;18.26;100.00;100666.69;4953122;28;20043;-83
2022/08/28 02:03:35;;;;;;;11.85;7.18;;;;;;;18.28;100.00;100675.50;4978036;28;20094;-85
2022/08/28 02:06:01;;;;;;;11.68;7.50;;;;;;;18.39;100.00;100672.25;4984145;28;20442;-84
2022/08/28 02:08:28;;;;;;;10.70;7.65;;;;;;;18.36;100.00;100669.75;4984437;28;20038;-83
2022/08/28 02:10:55;;;;;;;8.07;6.38;;;;;;;18.32;100.00;100673.50;4983809;28;20183;-83
2022/08/28 02:13:22;;;;;;;10.60;6.75;;;;;;;18.19;100.00;100670.63;4984816;28;20108;-85
2022/08/28 02:15:51;;;;;;;9.05;7.00;;;;;;;18.19;100.00;100662.63;4984409;28;20054;-84
2022/08/28 02:18:17;;;;;;;10.98;7.10;;;;;;;18.22;100.00;100671.31;4984770;28;20484;-85
2022/08/28 02:20:45;;;;;;;11.43;7.00;;;;;;;18.20;100.00;100673.22;4988525;28;20130;-84
2022/08/28 02:23:12;;;;;;;11.90;7.15;;;;;;;18.21;100.00;100674.09;4988930;28;20133;-83
2022/08/28 02:25:39;;;;;;;8.88;7.03;;;;;;;18.19;100.00;100671.50;4987726;28;20041;-84
2022/08/28 02:28:06;;;;;;;12.25;7.28;;;;;;;18.33;100.00;100673.47;4984943;28;20038;-85
2022/08/28 02:30:34;;;;;;;9.05;6.60;;;;;;;18.31;100.00;100669.97;5005108;28;20089;-84
2022/08/28 02:33:01;;;;;;;12.77;7.28;;;;;;;18.34;100.00;100667.16;4991086;28;22473;-85
2022/08/28 02:35:27;;;;;;;10.90;6.47;;;;;;;18.38;100.00;100657.16;4971782;28;20065;-82
2022/08/28 02:37:54;;;;;;;10.55;6.75;;;;;;;18.28;100.00;100659.44;4987302;28;20407;-84
2022/08/28 02:40:22;;;;;;;8.45;6.22;;;;;;;18.27;100.00;100669.28;4989554;28;20042;-83
2022/08/28 02:42:50;;;;;;;11.63;7.60;;;;;;;18.19;100.00;100659.94;4957019;28;20042;-85
2022/08/28 02:45:18;;;;;;;9.07;7.13;;;;;;;18.18;100.00;100660.88;4989848;28;20042;-84
2022/08/28 02:47:46;;;;;;;8.13;6.30;;;;;;;18.25;100.00;100670.31;4980147;28;20038;-82
2022/08/28 02:50:16;;;;;;;12.40;6.13;;;;;;;18.14;100.00;100668.19;4988153;28;20054;-85
2022/08/28 02:52:43;;;;;;;10.13;5.85;;;;;;;18.10;100.00;100666.63;4971427;28;20524;-85
2022/08/28 02:55:12;;;;;;;10.88;6.55;;;;;;;18.16;100.00;100662.75;4988120;28;20109;-83
2022/08/28 02:57:41;;;;;;;11.73;6.53;;;;;;;17.93;100.00;100661.28;4987211;28;20128;-84
2022/08/28 03:00:11;;;;;;;8.85;6.07;;;;;;;17.94;100.00;100661.19;4972324;28;20818;-83
2022/08/28 03:02:39;;;;;;;11.68;5.88;;;;;;;17.96;100.00;100658.44;4965791;28;20415;-84
2022/08/28 03:05:07;;;;;;;10.02;5.45;;;;;;;18.09;100.00;100667.56;4981708;28;20069;-82
2022/08/28 03:07:34;;;;;;;10.63;6.22;;;;;;;18.00;100.00;100660.03;4972659;28;20042;-84
2022/08/28 03:10:00;;;;;;;9.07;5.05;;;;;;;17.95;100.00;100662.06;4983317;28;20591;-84
2022/08/28 03:12:27;;;;;;;10.85;5.53;;;;;;;17.87;100.00;100665.13;4986253;28;20046;-84
2022/08/28 03:14:54;;;;;;;9.80;5.82;;;;;;;17.90;100.00;100667.63;4991548;28;20062;-86
2022/08/28 03:17:21;;;;;;;10.30;6.40;;;;;;;18.06;100.00;100667.72;4973960;28;20053;-85
2022/08/28 03:19:49;;;;;;;10.73;6.22;;;;;;;18.07;100.00;100676.59;4975481;28;20046;-85
2022/08/28 03:23:24;;;;;;;8.13;5.72;;;;;;;17.90;100.00;100672.97;4967084;28;20459;-84
2022/08/28 03:25:05;;;;;;;8.88;5.93;;;;;;;17.87;100.00;100670.47;4974774;28;20045;-84
2022/08/28 03:27:32;;;;;;;10.63;6.57;;;;;;;17.84;100.00;100675.97;4974729;28;20050;-84
2022/08/28 03:29:58;;;;;;;8.35;5.70;;;;;;;17.80;100.00;100674.38;4990850;28;20126;-83
2022/08/28 03:32:25;;;;;;;8.88;5.20;;;;;;;17.79;100.00;100678.00;4991099;28;20042;-84
2022/08/28 03:34:54;;;;;;;9.52;5.75;;;;;;;17.97;100.00;100677.06;4990834;28;20651;-85
2022/08/28 03:37:21;;;;;;;7.22;4.95;;;;;;;17.89;100.00;100670.38;4990460;28;20035;-84
2022/08/28 03:39:48;;;;;;;10.23;5.75;;;;;;;17.81;100.00;100684.13;4989873;28;20046;-83
2022/08/28 03:42:15;;;;;;;12.57;5.53;;;;;;;17.92;100.00;100679.13;4975895;28;20541;-83
2022/08/28 03:44:42;;;;;;;5.93;4.90;;;;;;;17.92;100.00;100686.28;4991776;28;20068;-86
2022/08/28 03:47:08;;;;;;;8.80;4.80;;;;;;;17.87;100.00;100681.16;4974259;28;20062;-83
2022/08/28 03:49:35;;;;;;;8.65;5.25;;;;;;;17.78;100.00;100684.28;5007111;28;20043;-83
2022/08/28 03:52:03;;;;;;;10.52;5.32;;;;;;;17.79;100.00;100694.03;4958309;28;20047;-83
2022/08/28 03:54:30;;;;;;;8.20;5.13;;;;;;;17.68;100.00;100688.34;4971085;28;20038;-80
2022/08/28 03:56:57;;;;;;;12.35;5.22;;;;;;;17.72;100.00;100688.13;4977393;28;20115;-86
2022/08/28 03:59:24;;;;;;;7.82;5.03;;;;;;;17.72;100.00;100687.25;4971633;28;20042;-83
2022/08/28 04:01:57;;;;;;;8.05;5.20;;;;;;;17.69;100.00;100690.06;4975113;28;20531;-86
2022/08/28 04:04:23;;;;;;;10.55;5.13;;;;;;;17.80;100.00;100690.41;4989765;28;20100;-84
2022/08/28 04:06:50;;;;;;;10.48;5.60;;;;;;;17.80;100.00;100694.91;4972248;28;20049;-84
2022/08/28 04:09:17;;;;;;;16.80;5.80;;;;;;;17.66;100.00;100703.59;4969478;28;20042;-83
2022/08/28 04:11:43;;;;;;;8.38;5.20;;;;;;;17.75;100.00;100697.81;4967436;28;20050;-84
2022/08/28 04:14:10;;;;;;;7.57;5.28;;;;;;;17.91;100.00;100698.78;4964323;28;20038;-83
2022/08/28 04:16:37;;;;;;;6.85;4.80;;;;;;;17.93;100.00;100702.25;4972201;28;20072;-83
2022/08/28 04:19:04;;;;;;;7.55;5.72;;;;;;;17.98;100.00;100708.19;4989966;28;20125;-81
2022/08/28 04:21:31;;;;;;;11.40;5.80;;;;;;;17.77;100.00;100711.09;4990670;28;20484;-83
2022/08/28 04:23:57;;;;;;;10.75;5.38;;;;;;;17.70;100.00;100703.38;4971672;28;20051;-80
2022/08/28 04:26:25;;;;;;;17.38;7.13;;;;;;;17.80;100.00;100701.09;4971973;28;20034;-83
2022/08/28 04:28:53;;;;;;;7.80;5.30;;;;;;;17.63;100.00;100703.72;4975984;28;20042;-84
2022/08/28 04:31:22;;;;;;;9.88;5.03;;;;;;;17.68;100.00;100701.69;4974939;28;20491;-83
2022/08/28 04:34:03;;;;;;;9.38;4.70;;;;;;;17.64;100.00;100700.97;4990456;28;20051;-81
2022/08/28 04:36:32;;;;;;;8.40;5.13;;;;;;;17.67;100.00;100714.19;4989877;28;20057;-83
2022/08/28 04:38:59;;;;;;;8.40;4.93;;;;;;;17.66;100.00;100708.94;4972479;28;20034;-82
2022/08/28 04:41:27;;;;;;;7.55;5.18;;;;;;;17.54;100.00;100709.50;4951919;28;20042;-83
2022/08/28 04:43:56;;;;;;;7.50;4.57;;;;;;;17.51;100.00;100709.66;4969963;28;20077;-85
2022/08/28 04:46:23;;;;;;;15.27;4.82;;;;;;;17.53;100.00;100715.78;4970858;28;20034;-84
2022/08/28 04:48:51;;;;;;;5.63;4.43;;;;;;;17.56;100.00;100721.84;4956944;28;20037;-84
2022/08/28 04:51:19;;;;;;;7.05;5.00;;;;;;;17.56;100.00;100721.84;4980951;28;20038;-83
2022/08/28 04:53:45;;;;;;;9.75;5.40;;;;;;;17.56;100.00;100719.16;4987251;28;20243;-82
2022/08/28 04:56:13;;;;;;;6.97;5.18;;;;;;;17.59;100.00;100720.84;4973539;28;20384;-83
2022/08/28 04:58:41;;;;;;;9.55;4.82;;;;;;;17.60;100.00;100720.75;4991293;28;20045;-84
2022/08/28 05:01:11;;;;;;;7.95;4.88;;;;;;;17.64;100.00;100726.81;4955963;28;20038;-84
2022/08/28 05:03:38;;;;;;;7.65;4.70;;;;;;;17.71;100.00;100722.94;4971842;28;20050;-84
2022/08/28 05:06:06;;;;;;;11.50;5.47;;;;;;;17.75;100.00;100723.66;4972093;28;20287;-84
2022/08/28 05:08:33;;;;;;;8.23;4.75;;;;;;;17.71;100.00;100723.81;4975362;28;20129;-84
2022/08/28 05:11:15;;;;;;;12.73;5.35;;;;;;;17.80;100.00;100725.16;4971412;28;20042;-82
2022/08/28 05:13:59;;;;;;;10.82;5.13;;;;;;;17.74;100.00;100728.16;4992751;28;20038;-84
2022/08/28 05:16:26;;;;;;;8.43;5.00;;;;;;;17.94;100.00;100732.50;4982981;28;20062;-84
2022/08/28 05:18:53;;;;;;;9.65;5.40;;;;;;;17.82;100.00;100731.28;4972618;28;20039;-84
2022/08/28 05:21:22;;;;;;;12.23;5.68;;;;;;;17.81;100.00;100726.88;4987999;28;20045;-84
2022/08/28 05:23:53;;;;;;;7.88;5.40;;;;;;;17.75;100.00;100731.69;4990314;28;20050;-84
2022/08/28 05:26:20;;;;;;;8.70;5.25;;;;;;;17.92;100.00;100735.25;4988058;28;20066;-83
2022/08/28 05:28:53;;;;;;;10.77;5.28;;;;;;;17.89;100.00;100740.72;4961928;28;20061;-83
2022/08/28 05:31:21;;;;;;;8.25;5.38;;;;;;;17.86;100.00;100740.91;4969983;28;20082;-82
2022/08/28 05:33:48;;;;;;;9.45;5.43;;;;;;;17.96;100.00;100738.63;5005490;28;20151;-84
2022/08/28 05:36:16;;;;;;;14.93;5.72;;;;;;;18.00;100.00;100743.75;4974041;28;20519;-83
2022/08/28 05:38:43;;;;;;;7.90;4.72;;;;;;;17.97;100.00;100740.34;4972236;28;20124;-85
2022/08/28 05:41:10;;;;;;;13.20;5.90;;;;;;;17.97;100.00;100741.22;4987337;28;20050;-86
2022/08/28 05:43:38;;;;;;;8.13;5.47;;;;;;;17.91;100.00;100752.25;4981373;28;20141;-85
2022/08/28 05:46:09;;;;;;;11.13;5.75;;;;;;;18.00;100.00;100753.59;5009171;28;20080;-84
2022/08/28 05:48:37;;;;;;;9.38;5.50;;;;;;;18.09;100.00;100746.91;4993245;28;20035;-84
2022/08/28 05:51:11;;;;;;;8.77;5.63;;;;;;;18.13;100.00;100745.81;4976721;28;20057;-82
2022/08/28 05:53:40;;;;;;;9.13;5.70;;;;;;;18.01;100.00;100741.94;4959560;28;20044;-82
2022/08/28 05:56:11;;;;;;;7.35;5.47;;;;;;;18.17;100.00;100742.91;4987075;28;20046;-86
2022/08/28 05:58:39;;;;;;;8.30;5.22;;;;;;;18.25;100.00;100738.03;4990694;28;20136;-82
2022/08/28 06:01:14;;;;;;;8.77;5.45;;;;;;;18.22;100.00;100745.34;4989066;28;20049;-84
2022/08/28 06:03:42;;;;;;;9.48;5.00;;;;;;;18.34;100.00;100744.72;5002997;28;20050;-82
2022/08/28 06:06:11;;;;;;;7.20;5.03;;;;;;;18.31;100.00;100750.22;4997540;28;20042;-85
2022/08/28 06:08:38;;;;;;;10.90;4.95;;;;;;;18.31;100.00;100755.56;4990872;28;20043;-82
2022/08/28 06:11:24;;;;;;;9.95;5.03;;;;;;;18.34;100.00;100744.72;4971932;28;20552;-82
2022/08/28 06:13:52;;;;;;;10.93;6.30;;;;;;;18.31;100.00;100752.88;4976675;28;20113;-85
2022/08/28 06:16:19;;;;;;;9.75;5.53;;;;;;;18.25;100.00;100759.44;4980079;28;20052;-83
2022/08/28 06:18:46;;;;;;;7.68;4.85;;;;;;;18.29;100.00;100758.31;4990451;28;20034;-85
2022/08/28 06:21:12;;;;;;;10.50;4.88;;;;;;;18.29;100.00;100750.31;4972589;28;20053;-84
2022/08/28 06:23:40;;;;;;;11.70;5.75;;;;;;;18.46;100.00;100748.56;4991517;28;20566;-84
2022/08/28 06:26:06;;;;;;;10.00;5.28;;;;;;;18.16;100.00;100754.56;4949910;28;20407;-85
2022/08/28 06:28:33;;;;;;;9.07;5.43;;;;;;;18.19;100.00;100761.56;4990484;28;20053;-83
2022/08/28 06:31:01;;;;;;;12.15;5.28;;;;;;;18.49;100.00;100754.63;4989403;28;20053;-85
2022/08/28 06:33:48;;;;;;;11.18;4.75;;;;;;;18.18;100.00;100760.69;4975702;28;20051;-83
2022/08/28 06:36:15;;;;;;;8.45;4.78;;;;;;;18.29;100.00;100757.47;4980008;28;20512;-85
2022/08/28 06:38:45;;;;;;;10.73;5.13;;;;;;;18.35;100.00;100756.28;4990516;28;20039;-84
2022/08/28 06:41:12;;;;;;;7.60;5.07;;;;;;;18.38;100.00;100767.69;4988577;28;20058;-85
2022/08/28 06:43:39;;;;;;;9.48;4.65;;;;;;;18.33;100.00;100764.41;4974037;28;20057;-82
2022/08/28 06:46:06;;;;;;;7.32;5.28;;;;;;;18.23;100.00;100771.13;4984991;28;20456;-84
2022/08/28 06:48:33;;;;;;;11.43;5.20;;;;;;;18.25;100.00;100772.81;4970390;28;20049;-84
2022/08/28 06:51:00;;;;;;;9.75;5.15;;;;;;;18.23;100.00;100773.81;4983758;28;20046;-84
2022/08/28 06:53:28;;;;;;;10.13;5.25;;;;;;;18.46;100.00;100770.84;5005140;28;20488;-82
2022/08/28 06:55:57;;;;;;;8.65;5.57;;;;;;;18.29;100.00;100785.06;4972042;28;20058;-82
2022/08/28 06:58:25;;;;;;;11.00;6.15;;;;;;;18.31;100.00;100781.44;4966616;28;20034;-85
2022/08/28 07:01:09;;;;;;;10.48;5.55;;;;;;;18.32;100.00;100786.72;4999821;28;20057;-83
2022/08/28 07:03:39;;;;;;;8.55;5.68;;;;;;;18.52;100.00;100793.75;4987975;28;20102;-83
2022/08/28 07:06:12;;;;;;;10.93;5.95;;;;;;;18.54;100.00;100799.88;4991213;28;20109;-85
2022/08/28 07:08:40;;;;;;;8.15;5.78;;;;;;;18.48;100.00;100795.69;4960981;28;20110;-87
2022/08/28 07:11:17;;;;;;;8.40;5.72;;;;;;;18.54;100.00;100800.75;4955229;28;20567;-85
2022/08/28 07:13:44;;;;;;;11.45;6.40;;;;;;;18.66;100.00;100801.06;4991913;28;20065;-84
2022/08/28 07:16:12;;;;;;;7.28;5.97;;;;;;;18.79;100.00;100799.50;4975765;28;20050;-85
2022/08/28 07:18:40;;;;;;;8.25;4.93;;;;;;;18.75;100.00;100800.59;4975571;28;20089;-83
2022/08/28 07:21:07;;;;;;;8.63;5.32;;;;;;;18.86;100.00;100797.38;4985650;28;20086;-83
2022/08/28 07:23:39;;;;;;;9.88;5.55;;;;;;;18.86;100.00;100803.59;4975925;28;20046;-85
2022/08/28 07:26:10;;;;;;;10.18;5.63;;;;;;;18.80;100.00;100802.09;4970622;28;20046;-83
2022/08/28 07:28:36;;;;;;;7.72;5.50;;;;;;;18.77;100.00;100810.28;4976156;28;20070;-85
2022/08/28 07:31:08;;;;;;;10.18;5.80;;;;;;;18.70;100.00;100806.22;4968346;28;20046;-85
2022/08/28 07:33:36;;;;;;;8.07;5.68;;;;;;;18.80;100.00;100812.81;5001607;28;20118;-84
2022/08/28 07:36:05;;;;;;;9.20;5.63;;;;;;;18.67;100.00;100811.72;4966335;28;20034;-85
2022/08/28 07:38:33;;;;;;;8.77;5.93;;;;;;;18.36;100.00;100812.38;4978222;28;20038;-84
2022/08/28 07:41:00;;;;;;;8.80;5.10;;;;;;;18.45;100.00;100816.41;4958428;28;20057;-85
2022/08/28 07:46:12;;;;;;;6.65;5.20;;;;;;;18.58;100.00;100828.19;4990753;28;20046;-87
2022/08/28 07:48:39;;;;;;;5.65;4.95;;;;;;;18.68;100.00;100829.50;4981971;28;20041;-85
2022/08/28 07:51:08;;;;;;;8.75;5.65;;;;;;;18.64;100.00;100832.38;4989623;28;20061;-82
2022/08/28 07:53:35;;;;;;;8.45;6.00;;;;;;;18.77;100.00;100836.19;4981270;28;20049;-82
2022/08/28 07:56:03;;;;;;;7.63;5.20;;;;;;;18.78;100.00;100832.56;4975849;28;20042;-86
2022/08/28 07:58:30;;;;;;;7.07;5.35;;;;;;;18.86;100.00;100841.06;4984136;28;20563;-85
2022/08/28 08:00:57;;;;;;;7.20;5.07;;;;;;;18.72;100.00;100840.91;4973027;28;20046;-84
2022/08/28 08:03:24;;;;;;;7.78;5.07;;;;;;;18.78;100.00;100835.25;4973499;28;20046;-85
2022/08/28 08:05:56;;;;;;;8.48;5.38;;;;;;;18.80;100.00;100830.69;4986111;28;20046;-84
2022/08/28 08:08:24;;;;;;;7.53;5.80;;;;;;;18.88;100.00;100830.28;4975437;28;20045;-86
2022/08/28 08:10:59;;;;;;;7.95;5.90;;;;;;;19.03;100.00;100841.06;4957531;28;20415;-85
2022/08/28 08:13:28;;;;;;;11.10;6.03;;;;;;;19.02;100.00;100846.50;4986622;28;20046;-85
2022/08/28 08:16:18;;;;;;;8.70;5.80;;;;;;;18.99;100.00;100841.28;4963846;28;20047;-85
2022/08/28 08:18:47;;;;;;;8.82;5.43;;;;;;;19.02;100.00;100850.03;4972844;28;20047;-83
2022/08/28 08:21:16;;;;;;;7.13;5.70;;;;;;;19.09;100.00;100850.59;4964426;28;20130;-84
2022/08/28 08:23:43;;;;;;;8.43;5.93;;;;;;;19.17;100.00;100843.03;4980587;28;20043;-84
2022/08/28 08:26:13;;;;;;;9.65;6.07;;;;;;;19.26;100.00;100850.56;4988300;28;20474;-84
2022/08/28 08:28:41;;;;;;;7.25;5.45;;;;;;;19.30;100.00;100854.78;4975505;28;20134;-82
2022/08/28 08:31:13;;;;;;;10.82;6.07;;;;;;;19.26;100.00;100853.25;4964763;28;20042;-82
2022/08/28 08:33:43;;;;;;;10.07;6.53;;;;;;;19.34;100.00;100853.69;5008710;28;20049;-86
2022/08/28 08:36:11;;;;;;;8.07;5.80;;;;;;;19.36;100.00;100859.81;4969712;28;20117;-84
2022/08/28 08:38:39;;;;;;;10.57;6.35;;;;;;;19.35;100.00;100857.25;4992407;28;20038;-86
2022/08/28 08:41:47;;;;;;;11.02;6.63;;;;;;;19.24;100.00;100862.28;4971178;28;20070;-87
2022/08/28 08:44:23;;;;;;;8.98;6.13;;;;;;;19.16;100.00;100869.84;4984463;28;20054;-84
2022/08/28 08:47:12;;;;;;;9.50;6.63;;;;;;;19.04;100.00;100866.88;4985319;28;20038;-87
2022/08/28 08:49:55;;;;;;;10.85;6.25;;;;;;;18.98;100.00;100861.84;4991608;28;20496;-83
2022/08/28 08:52:28;;;;;;;9.95;7.05;;;;;;;19.14;100.00;100861.91;4997696;28;20050;-87
2022/08/28 08:55:22;;;;;;;9.57;6.70;;;;;;;19.12;100.00;100853.97;4988496;28;20499;-86
2022/08/28 08:57:54;;;;;;;;;;;;;;;19.21;100.00;100859.78;4952955;28;20057;-87
2022/08/28 09:00:21;;;;;;;10.82;5.60;;;;;;;19.47;100.00;100861.06;5001427;28;19922;-85
2022/08/28 09:03:06;;;;;;;9.63;6.35;;;;;;;19.55;100.00;100851.66;4982535;28;20047;-87
2022/08/28 09:05:45;;;;;;;9.18;5.63;;;;;;;19.82;100.00;100853.78;4979876;28;20411;-86
2022/08/28 09:08:36;;;;;;;8.90;5.10;;;;;;;19.98;100.00;100861.84;4961756;28;20054;-87
2022/08/28 09:11:24;;;;;;;8.65;5.82;;;;;;;20.14;100.00;100857.34;4971534;28;20038;-84
2022/08/28 09:13:52;;;;;;;9.95;5.90;;;;;;;20.27;100.00;100857.50;4988555;28;20125;-84
2022/08/28 09:16:26;;;;;;;11.63;6.30;;;;;;;20.64;100.00;100865.16;4970913;28;20039;-84
2022/08/28 09:18:55;;;;;;;7.07;5.53;;;;;;;20.95;100.00;100852.59;4990684;28;20034;-86
2022/08/28 09:21:24;;;;;;;7.65;4.90;;;;;;;21.21;100.00;100861.75;4973454;28;20046;-84
2022/08/28 09:23:58;;;;;;;8.18;5.32;;;;;;;20.88;96.58;100862.00;4958139;28;20072;-84
2022/08/28 09:26:26;;;;;;;9.68;6.03;;;;;;;21.13;97.45;100859.53;4953137;28;20058;-83
2022/08/28 09:29:03;;;;;;;8.15;5.55;;;;;;;20.95;95.10;100861.53;4969171;28;20052;-84
2022/08/28 09:31:40;;;;;;;6.95;5.07;;;;;;;21.07;100.00;100857.22;4987363;28;20100;-84
2022/08/28 09:34:25;;;;;;;9.93;4.60;;;;;;;21.00;98.42;100866.59;4975238;28;22036;-87
2022/08/28 09:36:54;;;;;;;6.97;4.65;;;;;;;20.92;91.89;100860.81;4965146;28;20121;-85
2022/08/28 09:39:22;;;;;;;6.78;4.82;;;;;;;20.45;93.39;100872.59;4977669;28;20121;-83
2022/08/28 09:45:05;;;;;;;8.65;5.05;;;;;;;20.73;97.53;100872.69;4990568;28;20038;-86
2022/08/28 09:47:36;;;;;;;8.55;5.13;;;;;;;20.35;97.22;100871.34;4973547;28;20134;-83
2022/08/28 09:50:24;;;;;;;7.38;4.35;;;;;;;20.80;98.36;100866.00;4967317;28;20388;-84
2022/08/28 09:52:54;;;;;;;8.63;5.22;;;;;;;21.41;96.78;100866.78;5000723;28;20743;-81
2022/08/28 09:55:54;;;;;;;9.43;4.55;;;;;;;21.75;95.56;100860.16;4971043;28;20053;-83
2022/08/28 09:58:22;;;;;;;6.35;4.90;;;;;;;21.66;91.63;100858.03;4983109;28;20566;-83
2022/08/28 10:01:04;;;;;;;9.38;5.00;;;;;;;21.72;94.59;100864.88;4980261;28;20046;-84
2022/08/28 10:03:45;;;;;;;5.32;3.95;;;;;;;22.12;91.79;100863.19;4958731;28;20770;-83
2022/08/28 10:06:20;;;;;;;7.40;5.65;;;;;;;21.98;86.03;100858.66;4982845;28;20069;-85
2022/08/28 10:09:02;;;;;;;7.35;4.68;;;;;;;22.66;82.91;100855.97;4965514;28;20141;-85
2022/08/28 10:11:54;;;;;;;6.90;4.57;;;;;;;23.12;76.69;100851.94;4980422;28;20053;-84
2022/08/28 10:14:42;;;;;;;5.45;4.10;;;;;;;22.78;84.34;100870.41;4982333;28;20042;-84
2022/08/28 10:17:21;;;;;;;8.95;5.20;;;;;;;22.53;82.70;100863.13;4983542;28;20050;-83
2022/08/28 10:20:12;;;;;;;5.55;4.88;;;;;;;21.97;86.91;100866.84;4985199;28;20056;-83
2022/08/28 10:23:07;;;;;;;7.05;4.40;;;;;;;22.22;84.89;100860.75;4983017;28;20138;-85
2022/08/28 10:26:16;;;;;;;7.63;4.30;;;;;;;22.48;81.02;100866.13;4982977;28;20042;-85
2022/08/28 10:28:59;;;;;;;7.65;4.78;;;;;;;22.83;84.51;100868.28;4986436;28;20050;-83
2022/08/28 10:32:05;;;;;;;8.32;4.53;;;;;;;23.23;81.63;100866.44;4984558;28;20042;-84
2022/08/28 10:34:59;;;;;;;14.45;6.15;;;;;;;23.72;77.63;100871.06;4985271;28;20045;-85
2022/08/28 10:37:26;;;;;;;;;;;;;;;22.81;75.13;100878.31;4978889;28;20045;-83
2022/08/28 10:39:56;;;;;;;6.57;4.68;;;;;;;23.01;81.19;100876.97;4986898;28;20398;-83
2022/08/28 10:42:31;;;;;;;6.30;4.65;;;;;;;23.11;78.34;100871.78;4968437;28;20085;-84
2022/08/28 10:45:07;;;;;;;9.73;4.95;;;;;;;23.25;76.99;100863.63;4987098;28;20047;-85
2022/08/28 10:47:37;;;;;;;9.02;5.20;;;;;;;23.32;76.86;100873.00;4965739;28;20496;-84
2022/08/28 10:50:11;;;;;;;5.35;4.30;;;;;;;23.18;79.79;100871.25;4987310;28;20045;-85
2022/08/28 10:52:45;;;;;;;5.15;4.43;;;;;;;23.46;74.57;100872.03;4996269;28;20039;-85
2022/08/28 10:55:18;;;;;;;5.72;4.28;;;;;;;23.76;76.57;100874.41;4970554;28;20523;-85
2022/08/28 10:57:56;;;;;;;5.75;4.32;;;;;;;23.69;75.86;100889.28;4994663;28;20473;-83
2022/08/28 11:00:26;;;;;;;6.47;5.30;;;;;;;22.99;75.58;100882.47;4983472;28;20066;-84
2022/08/28 11:03:20;;;;;;;6.18;4.80;;;;;;;23.46;79.69;100882.81;4983747;28;20047;-83
2022/08/28 11:06:07;;;;;;;7.15;3.97;;;;;;;24.00;78.25;100886.09;4967381;28;20042;-84
2022/08/28 11:08:35;;;;;;;5.63;4.55;;;;;;;23.99;73.59;100900.59;4973769;28;20546;-83
2022/08/28 11:11:05;;;;;;;7.40;4.80;;;;;;;22.65;75.45;100888.38;4982557;28;20802;-85
2022/08/28 11:13:52;;;;;;;4.78;3.97;;;;;;;23.21;77.59;100889.06;4968249;28;20065;-85
2022/08/28 11:16:36;;;;;;;7.40;5.70;;;;;;;23.40;78.14;100888.66;4987254;28;20034;-84
2022/08/28 11:19:09;;;;;;;6.53;5.00;;;;;;;23.66;80.45;100893.06;4966897;28;20097;-85
2022/08/28 11:21:46;;;;;;;6.35;4.32;;;;;;;23.57;76.11;100889.16;4987303;28;20571;-84
2022/08/28 11:24:33;;;;;;;5.93;3.88;;;;;;;23.11;78.63;100896.91;4957057;28;20129;-86
2022/08/28 11:27:24;;;;;;;5.15;3.72;;;;;;;22.94;80.79;100906.16;4971772;28;20404;-83
2022/08/28 11:30:07;;;;;;;5.88;4.13;;;;;;;22.71;77.39;100905.00;4968947;28;20050;-85
2022/08/28 11:32:53;;;;;;;7.65;4.95;;;;;;;22.48;77.14;100911.06;5002792;28;20134;-84
2022/08/28 11:35:39;;;;;;;4.95;4.00;;;;;;;22.47;79.39;100909.31;4990291;28;20046;-82
2022/08/28 11:38:06;;;;;;;6.38;3.90;;;;;;;22.77;81.96;100907.25;4984498;28;20038;-84
2022/08/28 11:40:33;;;;;;;5.35;4.18;;;;;;;22.92;81.97;100913.47;4975084;28;20109;-85
2022/08/28 11:43:15;;;;;;;6.97;4.40;;;;;;;23.12;77.21;100912.13;4986812;28;20527;-82